createdAt,value
2022-12-07T00:00:23.213Z,3.20
2022-12-07T00:01:56.293Z,3.20
2022-12-07T00:03:30.768Z,3.20
2022-12-07T00:05:03.899Z,3.20
2022-12-07T00:06:39.151Z,3.20
2022-12-07T00:08:11.352Z,3.20
2022-12-07T00:09:44.518Z,3.10
2022-12-07T00:11:20.002Z,3.00
2022-12-07T00:12:53.068Z,3.10
2022-12-07T00:14:26.181Z,3.10
2022-12-07T00:16:02.865Z,3.10
2022-12-07T00:17:36.065Z,3.20
2022-12-07T00:19:13.048Z,3.10
2022-12-07T00:20:46.098Z,3.10
2022-12-07T00:22:19.213Z,3.10
2022-12-07T00:23:53.768Z,3.10
2022-12-07T00:25:27.405Z,3.10
2022-12-07T00:27:00.433Z,3.10
2022-12-07T00:28:34.570Z,3.10
2022-12-07T00:30:09.000Z,3.10
2022-12-07T00:31:42.176Z,3.10
2022-12-07T00:33:15.322Z,3.10
2022-12-07T00:34:49.752Z,3.10
2022-12-07T00:36:27.313Z,3.10
2022-12-07T00:38:00.684Z,3.10
2022-12-07T00:39:33.754Z,3.10
2022-12-07T00:41:08.805Z,3.10
2022-12-07T00:42:41.881Z,3.10
2022-12-07T00:44:15.222Z,3.10
2022-12-07T00:45:48.349Z,3.10
2022-12-07T00:47:21.496Z,3.10
2022-12-07T00:48:55.710Z,3.10
2022-12-07T00:50:30.119Z,3.10
2022-12-07T00:52:03.222Z,3.10
2022-12-07T00:53:41.123Z,3.10
2022-12-07T00:55:14.871Z,3.10
2022-12-07T00:56:47.930Z,3.00
2022-12-07T00:58:21.331Z,2.90
2022-12-07T00:59:56.284Z,3.00
2022-12-07T01:01:31.878Z,3.00
2022-12-07T01:03:04.391Z,3.00
2022-12-07T01:04:37.484Z,3.00
2022-12-07T01:06:15.607Z,3.00
2022-12-07T01:07:47.773Z,3.10
2022-12-07T01:09:20.968Z,3.10
2022-12-07T01:11:00.896Z,3.00
2022-12-07T01:12:34.028Z,3.00
2022-12-07T01:14:07.245Z,3.10
2022-12-07T01:15:41.812Z,3.10
2022-12-07T01:17:14.981Z,3.10
2022-12-07T01:18:49.908Z,3.40
2022-12-07T01:20:22.963Z,3.20
2022-12-07T01:21:57.464Z,3.10
2022-12-07T01:23:30.653Z,3.10
2022-12-07T01:25:04.098Z,3.10
2022-12-07T01:26:37.170Z,3.10
2022-12-07T01:28:10.242Z,3.10
2022-12-07T01:29:43.532Z,3.20
2022-12-07T01:31:19.971Z,3.10
2022-12-07T01:32:53.096Z,3.10
2022-12-07T01:34:26.281Z,3.10
2022-12-07T01:36:03.915Z,3.20
2022-12-07T01:37:40.093Z,3.20
2022-12-07T01:39:13.165Z,3.20
2022-12-07T01:40:46.439Z,3.10
2022-12-07T01:42:20.352Z,3.10
2022-12-07T01:44:12.966Z,3.20
2022-12-07T01:45:46.600Z,3.20
2022-12-07T01:47:19.701Z,3.20
2022-12-07T01:48:52.772Z,3.20
2022-12-07T01:50:29.064Z,3.20
2022-12-07T01:52:15.939Z,3.20
2022-12-07T01:53:49.414Z,3.20
2022-12-07T01:55:22.668Z,3.20
2022-12-07T01:56:58.424Z,3.30
2022-12-07T01:58:31.949Z,3.20
2022-12-07T02:00:06.471Z,3.20
2022-12-07T02:01:48.679Z,3.10
2022-12-07T02:03:26.045Z,3.00
2022-12-07T02:05:00.842Z,3.10
2022-12-07T02:06:32.993Z,2.90
2022-12-07T02:08:06.690Z,3.00
2022-12-07T02:09:41.140Z,3.00
2022-12-07T02:11:14.417Z,2.90
2022-12-07T02:12:50.825Z,2.90
2022-12-07T02:14:23.960Z,2.90
2022-12-07T02:16:16.490Z,2.90
2022-12-07T02:17:59.336Z,2.90
2022-12-07T02:20:09.505Z,2.90
2022-12-07T02:21:50.364Z,2.90
2022-12-07T02:23:42.795Z,2.90
2022-12-07T02:25:26.764Z,2.80
2022-12-07T02:27:13.028Z,2.80
2022-12-07T02:29:07.324Z,2.70
2022-12-07T02:30:46.934Z,2.60
2022-12-07T02:32:24.226Z,2.60
2022-12-07T02:34:07.825Z,2.60
2022-12-07T02:35:44.745Z,2.60
2022-12-07T02:37:27.744Z,2.50
2022-12-07T02:39:04.801Z,2.50
2022-12-07T02:40:42.434Z,2.40
2022-12-07T02:42:18.580Z,2.30
2022-12-07T02:43:56.341Z,2.30
2022-12-07T02:45:33.358Z,2.30
2022-12-07T02:47:10.960Z,2.20
2022-12-07T02:48:45.937Z,2.30
2022-12-07T02:50:19.876Z,2.30
2022-12-07T02:51:54.717Z,2.20
2022-12-07T02:53:32.501Z,2.30
2022-12-07T02:55:07.086Z,2.30
2022-12-07T02:56:47.533Z,2.30
2022-12-07T02:58:32.765Z,2.40
2022-12-07T03:00:10.630Z,2.20
2022-12-07T03:01:53.216Z,2.20
2022-12-07T03:03:27.230Z,2.30
2022-12-07T03:05:14.974Z,2.30
2022-12-07T03:06:53.559Z,2.30
2022-12-07T03:08:35.173Z,2.40
2022-12-07T03:10:16.795Z,2.40
2022-12-07T03:11:52.807Z,2.40
2022-12-07T03:13:31.801Z,2.50
2022-12-07T03:15:12.261Z,2.50
2022-12-07T03:16:49.544Z,2.50
2022-12-07T03:18:25.906Z,2.40
2022-12-07T03:20:02.291Z,2.40
2022-12-07T03:21:41.544Z,2.40
2022-12-07T03:23:16.261Z,2.50
2022-12-07T03:24:54.252Z,2.50
2022-12-07T03:26:34.504Z,2.40
2022-12-07T03:28:09.184Z,2.40
2022-12-07T03:29:47.167Z,2.40
2022-12-07T03:31:24.584Z,2.40
2022-12-07T03:33:03.314Z,2.40
2022-12-07T03:34:43.070Z,2.30
2022-12-07T03:36:22.444Z,2.30
2022-12-07T03:37:59.428Z,2.30
2022-12-07T03:39:39.364Z,2.20
2022-12-07T03:41:18.603Z,2.20
2022-12-07T03:42:52.818Z,2.20
2022-12-07T03:44:26.467Z,2.20
2022-12-07T03:46:08.874Z,2.20
2022-12-07T03:47:50.230Z,2.10
2022-12-07T03:49:27.784Z,2.10
2022-12-07T03:51:06.945Z,2.00
2022-12-07T03:52:43.226Z,2.00
2022-12-07T03:54:21.800Z,1.90
2022-12-07T03:55:56.501Z,1.90
2022-12-07T03:57:30.775Z,1.80
2022-12-07T03:59:03.873Z,1.80
2022-12-07T04:00:37.378Z,1.70
2022-12-07T04:02:13.560Z,1.70
2022-12-07T04:03:48.010Z,1.70
2022-12-07T04:05:21.215Z,1.60
2022-12-07T04:06:54.375Z,1.60
2022-12-07T04:08:27.547Z,1.60
2022-12-07T04:10:01.104Z,1.50
2022-12-07T04:11:34.354Z,1.50
2022-12-07T04:13:07.474Z,1.50
2022-12-07T04:14:39.618Z,1.50
2022-12-07T04:16:12.750Z,1.50
2022-12-07T04:17:45.853Z,1.50
2022-12-07T04:19:21.898Z,1.50
2022-12-07T04:20:54.922Z,1.50
2022-12-07T04:22:28.061Z,1.60
2022-12-07T04:24:01.114Z,1.60
2022-12-07T04:25:34.172Z,1.50
2022-12-07T04:27:07.229Z,1.50
2022-12-07T04:28:40.319Z,1.70
2022-12-07T04:30:13.918Z,1.70
2022-12-07T04:31:47.296Z,1.70
2022-12-07T04:33:20.384Z,1.80
2022-12-07T04:34:55.979Z,1.80
2022-12-07T04:36:29.365Z,1.70
2022-12-07T04:38:02.433Z,1.70
2022-12-07T04:39:36.127Z,1.70
2022-12-07T04:41:10.346Z,1.70
2022-12-07T04:42:43.431Z,1.70
2022-12-07T04:44:17.368Z,1.70
2022-12-07T04:45:49.797Z,1.50
2022-12-07T04:47:22.846Z,1.40
2022-12-07T04:48:56.400Z,1.30
2022-12-07T04:50:30.843Z,1.30
2022-12-07T04:52:04.119Z,1.20
2022-12-07T04:53:36.197Z,1.00
2022-12-07T04:55:09.757Z,0.90
2022-12-07T04:56:43.248Z,0.80
2022-12-07T04:58:16.371Z,0.90
2022-12-07T04:59:49.433Z,0.80
2022-12-07T05:01:22.519Z,0.70
2022-12-07T05:02:55.617Z,0.80
2022-12-07T05:04:28.701Z,0.80
2022-12-07T05:06:03.137Z,0.70
2022-12-07T05:07:36.293Z,0.70
2022-12-07T05:09:09.585Z,0.70
2022-12-07T05:10:42.643Z,0.60
2022-12-07T05:12:15.680Z,0.50
2022-12-07T05:13:48.761Z,0.50
2022-12-07T05:15:21.905Z,0.40
2022-12-07T05:16:55.295Z,0.20
2022-12-07T05:18:27.388Z,0.10
2022-12-07T05:20:01.013Z,0.10
2022-12-07T05:21:35.761Z,0.10
2022-12-07T05:23:08.915Z,0.00
2022-12-07T05:24:41.994Z,-0.10
2022-12-07T05:26:15.098Z,-0.20
2022-12-07T05:27:48.342Z,-0.20
2022-12-07T05:29:21.419Z,-0.20
2022-12-07T05:30:59.554Z,-0.20
2022-12-07T05:32:32.937Z,-0.20
2022-12-07T05:34:06.003Z,-0.20
2022-12-07T05:35:39.565Z,-0.20
2022-12-07T05:37:13.961Z,-0.20
2022-12-07T05:38:46.368Z,-0.20
2022-12-07T05:40:20.451Z,-0.30
2022-12-07T05:42:22.716Z,-0.30
2022-12-07T05:43:55.767Z,-0.30
2022-12-07T05:45:28.893Z,-0.30
2022-12-07T05:47:01.990Z,-0.20
2022-12-07T05:48:35.029Z,-0.10
2022-12-07T05:50:09.197Z,0.00
2022-12-07T05:51:42.332Z,0.00
2022-12-07T05:53:22.679Z,0.10
2022-12-07T05:54:56.171Z,0.10
2022-12-07T05:56:29.216Z,0.10
2022-12-07T05:58:19.892Z,0.20
2022-12-07T05:59:52.929Z,0.20
2022-12-07T06:01:25.020Z,0.40
2022-12-07T06:02:58.138Z,0.40
2022-12-07T06:04:32.623Z,0.40
2022-12-07T06:06:05.203Z,0.50
2022-12-07T06:07:38.445Z,0.50
2022-12-07T06:09:14.027Z,0.60
2022-12-07T06:11:08.507Z,0.60
2022-12-07T06:12:43.549Z,0.60
2022-12-07T06:14:15.737Z,0.70
2022-12-07T06:15:49.836Z,0.80
2022-12-07T06:17:22.913Z,0.90
2022-12-07T06:18:55.353Z,1.10
2022-12-07T06:20:28.417Z,1.20
2022-12-07T06:22:01.693Z,1.40
2022-12-07T06:23:34.802Z,1.50
2022-12-07T06:25:10.853Z,1.60
2022-12-07T06:26:44.147Z,1.60
2022-12-07T06:28:17.222Z,1.70
2022-12-07T06:29:50.281Z,1.80
2022-12-07T06:31:22.685Z,1.90
2022-12-07T06:32:55.740Z,1.90
2022-12-07T06:34:29.267Z,2.00
2022-12-07T06:36:02.294Z,2.00
2022-12-07T06:37:35.403Z,2.00
2022-12-07T06:39:10.001Z,2.20
2022-12-07T06:40:44.406Z,2.30
2022-12-07T06:42:17.441Z,2.20
2022-12-07T06:43:55.737Z,2.20
2022-12-07T06:45:29.392Z,2.20
2022-12-07T06:47:31.910Z,2.20
2022-12-07T06:48:56.150Z,2.20
2022-12-07T06:50:29.211Z,2.20
2022-12-07T06:52:02.255Z,2.10
2022-12-07T06:53:35.582Z,2.10
2022-12-07T06:55:09.402Z,2.10
2022-12-07T06:56:44.449Z,2.10
2022-12-07T06:58:16.588Z,2.10
2022-12-07T06:59:49.633Z,2.20
2022-12-07T07:01:22.766Z,2.20
2022-12-07T07:02:56.127Z,2.30
2022-12-07T07:04:29.249Z,2.30
2022-12-07T07:06:02.301Z,2.30
2022-12-07T07:07:51.715Z,2.40
2022-12-07T07:09:28.467Z,2.50
2022-12-07T07:11:01.741Z,2.50
2022-12-07T07:12:36.169Z,2.70
2022-12-07T07:14:09.232Z,2.70
2022-12-07T07:15:42.361Z,2.70
2022-12-07T07:17:15.458Z,2.70
2022-12-07T07:18:48.499Z,2.80
2022-12-07T07:20:21.595Z,2.80
2022-12-07T07:21:54.820Z,2.80
2022-12-07T07:23:28.081Z,2.80
2022-12-07T07:25:01.146Z,2.90
2022-12-07T07:26:34.261Z,2.90
2022-12-07T07:28:08.688Z,2.90
2022-12-07T07:29:41.978Z,2.90
2022-12-07T07:31:15.055Z,2.80
2022-12-07T07:32:48.131Z,2.70
2022-12-07T07:34:21.307Z,2.70
2022-12-07T07:35:54.409Z,2.60
2022-12-07T07:37:27.720Z,2.60
2022-12-07T07:39:00.784Z,2.60
2022-12-07T07:40:34.139Z,2.50
2022-12-07T07:42:08.445Z,2.50
2022-12-07T07:43:42.921Z,2.50
2022-12-07T07:45:16.164Z,2.50
2022-12-07T07:46:49.216Z,2.40
2022-12-07T07:48:23.685Z,2.40
2022-12-07T07:49:56.875Z,2.40
2022-12-07T07:51:29.943Z,2.50
2022-12-07T07:53:02.988Z,2.50
2022-12-07T07:54:36.087Z,2.50
2022-12-07T07:56:09.437Z,2.60
2022-12-07T07:57:45.321Z,2.70
2022-12-07T07:59:21.653Z,2.70
2022-12-07T08:00:55.286Z,2.80
2022-12-07T08:02:30.519Z,2.90
2022-12-07T08:04:03.722Z,2.90
2022-12-07T08:05:38.560Z,3.00
2022-12-07T08:07:12.181Z,3.10
2022-12-07T08:08:45.267Z,3.00
2022-12-07T08:10:18.472Z,3.10
2022-12-07T08:11:51.525Z,3.10
2022-12-07T08:13:30.595Z,3.10
2022-12-07T08:15:06.158Z,3.10
2022-12-07T08:16:39.906Z,3.20
2022-12-07T08:18:13.746Z,3.20
2022-12-07T08:19:46.822Z,3.20
2022-12-07T08:21:19.963Z,3.30
2022-12-07T08:22:53.085Z,3.30
2022-12-07T08:24:27.028Z,3.30
2022-12-07T08:26:02.469Z,3.40
2022-12-07T08:27:35.762Z,3.40
2022-12-07T08:29:08.828Z,3.50
2022-12-07T08:30:43.314Z,3.60
2022-12-07T08:32:16.399Z,3.60
2022-12-07T08:33:49.869Z,3.60
2022-12-07T08:35:22.973Z,3.60
2022-12-07T08:36:56.046Z,3.70
2022-12-07T08:38:31.989Z,3.80
2022-12-07T08:40:06.965Z,3.80
2022-12-07T08:41:40.181Z,3.90
2022-12-07T08:43:13.265Z,3.90
2022-12-07T08:44:47.488Z,3.90
2022-12-07T08:46:25.224Z,4.00
2022-12-07T08:48:03.799Z,4.00
2022-12-07T08:49:41.465Z,4.00
2022-12-07T08:51:15.432Z,4.00
2022-12-07T08:52:52.602Z,4.10
2022-12-07T08:54:25.821Z,4.20
2022-12-07T08:56:00.011Z,4.30
2022-12-07T08:57:36.331Z,4.40
2022-12-07T08:59:09.671Z,4.70
2022-12-07T09:00:42.772Z,4.70
2022-12-07T09:02:18.320Z,4.80
2022-12-07T09:03:51.464Z,4.90
2022-12-07T09:05:24.721Z,4.90
2022-12-07T09:06:58.318Z,4.90
2022-12-07T09:08:35.137Z,4.70
2022-12-07T09:10:09.211Z,4.60
2022-12-07T09:11:42.286Z,4.40
2022-12-07T09:13:15.550Z,4.40
2022-12-07T09:14:48.595Z,4.50
2022-12-07T09:16:21.840Z,4.50
2022-12-07T09:17:56.279Z,4.60
2022-12-07T09:19:29.410Z,4.70
2022-12-07T09:21:02.525Z,4.80
2022-12-07T09:22:35.814Z,4.80
2022-12-07T09:24:10.264Z,5.20
2022-12-07T09:25:43.341Z,5.90
2022-12-07T09:27:18.572Z,6.20
2022-12-07T09:28:51.689Z,5.60
2022-12-07T09:30:24.791Z,5.30
2022-12-07T09:31:57.889Z,5.10
2022-12-07T09:33:33.475Z,5.00
2022-12-07T09:35:06.968Z,4.90
2022-12-07T09:36:40.083Z,4.90
2022-12-07T09:38:13.148Z,4.80
2022-12-07T09:39:50.061Z,4.80
2022-12-07T09:41:25.746Z,4.80
2022-12-07T09:42:58.853Z,4.80
2022-12-07T09:44:32.288Z,4.90
2022-12-07T09:46:05.978Z,4.90
2022-12-07T09:47:39.133Z,5.00
2022-12-07T09:49:17.096Z,5.10
2022-12-07T09:50:51.361Z,5.20
2022-12-07T09:52:31.853Z,5.30
2022-12-07T09:54:13.611Z,5.20
2022-12-07T09:55:46.677Z,5.10
2022-12-07T09:57:21.320Z,5.00
2022-12-07T09:59:00.122Z,5.00
2022-12-07T10:00:33.286Z,5.10
2022-12-07T10:02:26.725Z,5.20
2022-12-07T10:04:10.957Z,5.00
2022-12-07T10:05:49.717Z,5.00
2022-12-07T10:07:22.861Z,5.10
2022-12-07T10:08:55.888Z,5.10
2022-12-07T10:10:35.295Z,5.10
2022-12-07T10:12:13.233Z,5.20
2022-12-07T10:13:49.987Z,5.50
2022-12-07T10:15:23.657Z,5.60
2022-12-07T10:16:57.273Z,5.70
2022-12-07T10:18:32.976Z,5.70
2022-12-07T10:20:18.942Z,5.70
2022-12-07T10:22:15.185Z,5.70
2022-12-07T10:24:02.447Z,5.50
2022-12-07T10:25:39.261Z,5.80
2022-12-07T10:27:21.811Z,6.00
2022-12-07T10:28:54.984Z,6.10
2022-12-07T10:30:28.533Z,6.10
2022-12-07T10:32:04.362Z,6.10
2022-12-07T10:33:39.645Z,6.10
2022-12-07T10:35:26.040Z,6.60
2022-12-07T10:37:19.240Z,6.70
2022-12-07T10:38:54.985Z,6.70
2022-12-07T10:40:34.905Z,7.00
2022-12-07T10:42:15.177Z,6.90
2022-12-07T10:43:53.694Z,6.80
2022-12-07T10:45:26.771Z,6.40
2022-12-07T10:47:21.180Z,5.90
2022-12-07T10:49:05.317Z,5.90
2022-12-07T10:51:05.363Z,5.80
2022-12-07T10:53:00.813Z,5.70
2022-12-07T10:54:45.725Z,5.80
2022-12-07T10:56:49.702Z,5.60
2022-12-07T10:58:46.453Z,5.60
2022-12-07T11:00:21.363Z,5.60
2022-12-07T11:02:04.352Z,5.60
2022-12-07T11:03:53.367Z,5.50
2022-12-07T11:05:32.447Z,5.50
2022-12-07T11:07:12.801Z,5.60
2022-12-07T11:09:01.864Z,5.50
2022-12-07T11:10:46.272Z,5.70
2022-12-07T11:12:27.172Z,5.80
2022-12-07T11:14:07.289Z,5.80
2022-12-07T11:15:53.654Z,5.80
2022-12-07T11:17:36.239Z,5.70
2022-12-07T11:19:28.547Z,5.80
2022-12-07T11:21:11.507Z,5.90
2022-12-07T11:22:53.361Z,6.00
2022-12-07T11:24:34.830Z,6.00
2022-12-07T11:26:15.900Z,5.90
2022-12-07T11:27:59.620Z,5.90
2022-12-07T11:29:54.168Z,5.90
2022-12-07T11:31:33.459Z,5.80
2022-12-07T11:33:20.040Z,5.80
2022-12-07T11:35:05.026Z,5.80
2022-12-07T11:36:42.757Z,5.70
2022-12-07T11:38:19.953Z,5.80
2022-12-07T11:40:02.085Z,5.80
2022-12-07T11:41:38.815Z,5.80
2022-12-07T11:43:20.086Z,5.70
2022-12-07T11:44:57.101Z,5.50
2022-12-07T11:46:42.892Z,5.40
2022-12-07T11:48:21.095Z,5.20
2022-12-07T11:49:59.132Z,5.00
2022-12-07T11:51:37.555Z,4.80
2022-12-07T11:53:17.481Z,4.60
2022-12-07T11:54:53.747Z,4.40
2022-12-07T11:56:30.015Z,4.30
2022-12-07T11:58:13.801Z,4.30
2022-12-07T11:59:52.154Z,4.30
2022-12-07T12:01:41.449Z,4.20
2022-12-07T12:03:22.460Z,4.20
2022-12-07T12:05:00.588Z,4.30
2022-12-07T12:06:36.074Z,4.40
2022-12-07T12:10:21.002Z,4.50
2022-12-07T12:14:48.412Z,4.60
2022-12-07T12:16:42.338Z,4.70
2022-12-07T12:18:37.089Z,4.80
2022-12-07T12:20:21.810Z,5.00
2022-12-07T12:21:59.015Z,5.10
2022-12-07T12:23:40.434Z,5.10
2022-12-07T12:25:21.906Z,5.20
2022-12-07T12:27:03.767Z,5.30
2022-12-07T12:28:48.409Z,5.30
2022-12-07T12:30:36.548Z,5.20
2022-12-07T12:32:22.669Z,5.20
2022-12-07T12:33:58.034Z,5.20
2022-12-07T12:35:35.057Z,5.20
2022-12-07T12:37:43.235Z,5.10
2022-12-07T12:39:20.146Z,5.10
2022-12-07T12:40:53.392Z,5.00
2022-12-07T12:42:46.378Z,4.80
2022-12-07T12:45:04.443Z,4.30
2022-12-07T12:46:50.598Z,3.90
2022-12-07T12:48:31.078Z,3.70
2022-12-07T12:50:21.217Z,3.50
2022-12-07T12:51:55.763Z,3.40
2022-12-07T12:53:30.261Z,3.30
2022-12-07T12:55:14.710Z,3.20
2022-12-07T12:56:53.551Z,3.30
2022-12-07T12:58:44.953Z,3.20
2022-12-07T13:00:20.651Z,3.20
2022-12-07T13:01:57.565Z,3.30
2022-12-07T13:03:32.707Z,3.30
2022-12-07T13:10:26.803Z,3.30
2022-12-07T13:12:06.233Z,3.30
2022-12-07T13:13:39.360Z,3.30
2022-12-07T13:15:33.965Z,3.30
2022-12-07T13:17:10.857Z,3.20
2022-12-07T13:18:44.623Z,3.30
2022-12-07T13:20:44.603Z,3.20
2022-12-07T13:22:42.676Z,3.10
2022-12-07T13:24:16.758Z,3.10
2022-12-07T13:26:18.044Z,3.10
2022-12-07T13:27:57.690Z,3.10
2022-12-07T13:29:38.891Z,3.10
2022-12-07T13:31:18.964Z,3.10
2022-12-07T13:32:57.717Z,3.20
2022-12-07T13:34:33.342Z,3.20
2022-12-07T13:36:11.614Z,3.20
2022-12-07T13:37:44.730Z,3.20
2022-12-07T13:39:23.580Z,3.30
2022-12-07T13:41:05.593Z,3.30
2022-12-07T13:42:38.668Z,3.40
2022-12-07T13:44:14.112Z,3.40
2022-12-07T13:45:57.499Z,3.50
2022-12-07T13:47:35.573Z,3.70
2022-12-07T13:49:22.276Z,3.70
2022-12-07T13:50:56.747Z,3.80
2022-12-07T13:52:31.747Z,3.80
2022-12-07T13:54:13.012Z,3.70
2022-12-07T13:55:54.319Z,3.60
2022-12-07T13:57:29.685Z,3.50
2022-12-07T13:59:02.985Z,3.50
2022-12-07T14:00:36.082Z,3.50
2022-12-07T14:02:21.701Z,3.40
2022-12-07T14:03:55.266Z,3.20
2022-12-07T14:05:31.405Z,3.10
2022-12-07T14:07:25.427Z,3.00
2022-12-07T14:09:19.289Z,2.90
2022-12-07T14:10:58.550Z,2.80
2022-12-07T14:12:32.681Z,2.60
2022-12-07T14:14:07.101Z,2.60
2022-12-07T14:15:40.185Z,2.70
2022-12-07T14:17:17.815Z,2.70
2022-12-07T14:18:51.000Z,2.70
2022-12-07T14:20:37.343Z,2.80
2022-12-07T14:22:11.252Z,2.90
2022-12-07T14:23:44.622Z,2.90
2022-12-07T14:25:23.240Z,3.00
2022-12-07T14:26:56.299Z,3.00
2022-12-07T14:28:31.653Z,3.00
2022-12-07T14:30:06.480Z,3.10
2022-12-07T14:31:39.679Z,3.10
2022-12-07T14:33:13.129Z,3.10
2022-12-07T14:34:55.842Z,3.10
2022-12-07T14:36:30.283Z,3.20
2022-12-07T14:38:03.356Z,3.20
2022-12-07T14:39:36.395Z,3.20
2022-12-07T14:41:37.375Z,3.30
2022-12-07T14:43:14.929Z,3.30
2022-12-07T14:44:47.995Z,3.30
2022-12-07T14:46:21.093Z,3.30
2022-12-07T14:49:47.303Z,3.30
2022-12-07T14:53:24.696Z,3.30
2022-12-07T14:54:58.046Z,3.40
2022-12-07T14:56:31.161Z,3.40
2022-12-07T14:58:04.359Z,3.50
2022-12-07T14:59:40.488Z,3.50
2022-12-07T15:01:17.866Z,3.60
2022-12-07T15:02:52.015Z,3.70
2022-12-07T15:04:25.134Z,3.70
2022-12-07T15:05:58.274Z,3.70
2022-12-07T15:07:31.321Z,3.60
2022-12-07T15:09:06.256Z,3.60
2022-12-07T15:10:39.795Z,3.70
2022-12-07T15:12:12.912Z,3.60
2022-12-07T15:14:05.655Z,3.50
2022-12-07T15:15:38.774Z,3.50
2022-12-07T15:17:22.046Z,3.50
2022-12-07T15:19:26.935Z,3.40
2022-12-07T15:20:53.507Z,3.40
2022-12-07T15:22:26.573Z,3.50
2022-12-07T15:23:59.617Z,3.50
2022-12-07T15:25:34.428Z,3.50
2022-12-07T15:27:07.586Z,3.50
2022-12-07T15:28:40.669Z,3.60
2022-12-07T15:30:14.114Z,3.50
2022-12-07T15:31:55.721Z,3.60
2022-12-07T15:33:29.437Z,3.60
2022-12-07T15:35:02.895Z,3.70
2022-12-07T15:36:36.538Z,3.70
2022-12-07T15:38:10.175Z,3.70
2022-12-07T15:39:43.399Z,3.80
2022-12-07T15:41:18.170Z,3.80
2022-12-07T15:42:51.229Z,3.90
2022-12-07T15:44:41.840Z,3.90
2022-12-07T15:46:15.377Z,3.90
2022-12-07T15:48:26.767Z,3.90
2022-12-07T15:49:41.702Z,3.90
2022-12-07T15:51:14.834Z,3.90
2022-12-07T15:52:47.896Z,3.90
2022-12-07T15:54:23.688Z,3.90
2022-12-07T15:55:56.743Z,3.90
2022-12-07T15:57:31.304Z,3.90
2022-12-07T15:59:04.390Z,3.80
2022-12-07T16:00:37.432Z,3.80
2022-12-07T16:02:12.111Z,3.80
2022-12-07T16:03:46.430Z,3.70
2022-12-07T16:05:19.483Z,3.70
2022-12-07T16:06:52.846Z,3.60
2022-12-07T16:08:27.613Z,3.50
2022-12-07T16:10:02.476Z,3.50
2022-12-07T16:11:36.087Z,3.50
2022-12-07T16:13:10.541Z,3.50
2022-12-07T16:14:44.202Z,3.40
2022-12-07T16:16:19.972Z,3.40
2022-12-07T16:17:53.418Z,3.40
2022-12-07T16:19:26.587Z,3.30
2022-12-07T16:20:59.759Z,3.30
2022-12-07T16:22:32.950Z,3.20
2022-12-07T16:24:07.109Z,3.20
2022-12-07T16:25:40.163Z,3.10
2022-12-07T16:27:13.242Z,3.10
2022-12-07T16:28:50.497Z,3.00
2022-12-07T16:30:23.579Z,2.90
2022-12-07T16:31:56.702Z,2.90
2022-12-07T16:33:29.902Z,2.90
2022-12-07T16:35:03.239Z,2.80
2022-12-07T16:37:06.497Z,2.80
2022-12-07T16:38:29.621Z,2.70
2022-12-07T16:40:02.692Z,2.60
2022-12-07T16:41:35.806Z,2.60
2022-12-07T16:43:09.137Z,2.60
2022-12-07T16:44:43.805Z,2.60
2022-12-07T16:46:17.269Z,2.70
2022-12-07T16:47:50.405Z,2.80
2022-12-07T16:49:25.029Z,2.80
2022-12-07T16:50:58.293Z,2.80
2022-12-07T16:52:31.790Z,2.80
2022-12-07T16:54:05.066Z,2.80
2022-12-07T16:55:38.818Z,2.70
2022-12-07T16:57:15.427Z,2.70
2022-12-07T16:58:51.696Z,2.60
2022-12-07T17:00:26.231Z,2.60
2022-12-07T17:01:59.349Z,2.70
2022-12-07T17:03:32.466Z,2.70
2022-12-07T17:05:06.223Z,2.80
2022-12-07T17:06:39.465Z,2.80
2022-12-07T17:08:13.875Z,2.80
2022-12-07T17:09:47.045Z,2.80
2022-12-07T17:11:21.819Z,2.90
2022-12-07T17:12:54.843Z,3.00
2022-12-07T17:14:45.652Z,3.10
2022-12-07T17:16:20.100Z,3.20
2022-12-07T17:17:55.619Z,3.20
2022-12-07T17:19:28.766Z,3.30
2022-12-07T17:21:05.788Z,3.40
2022-12-07T17:22:39.043Z,3.40
2022-12-07T17:24:14.415Z,3.50
2022-12-07T17:25:47.587Z,3.50
2022-12-07T17:27:20.689Z,3.50
2022-12-07T17:28:54.145Z,3.40
2022-12-07T17:30:27.166Z,3.40
2022-12-07T17:32:01.606Z,3.40
2022-12-07T17:33:35.109Z,3.30
2022-12-07T17:35:09.109Z,3.30
2022-12-07T17:36:43.301Z,3.30
2022-12-07T17:38:16.310Z,3.30
2022-12-07T17:39:49.374Z,3.30
2022-12-07T17:41:42.214Z,3.30
2022-12-07T17:43:15.326Z,3.30
2022-12-07T17:44:48.448Z,3.30
2022-12-07T17:46:21.562Z,3.20
2022-12-07T17:47:56.256Z,3.20
2022-12-07T17:49:29.677Z,3.20
2022-12-07T17:51:20.220Z,3.20
2022-12-07T17:53:11.440Z,3.20
2022-12-07T17:54:44.736Z,3.10
2022-12-07T17:56:28.534Z,3.10
2022-12-07T17:58:01.909Z,3.20
2022-12-07T17:59:35.020Z,3.20
2022-12-07T18:01:10.270Z,3.20
2022-12-07T18:02:43.434Z,3.20
2022-12-07T18:04:17.952Z,3.20
2022-12-07T18:05:50.986Z,3.20
2022-12-07T18:07:24.218Z,3.30
2022-12-07T18:08:57.329Z,3.30
2022-12-07T18:10:30.390Z,3.30
2022-12-07T18:12:03.853Z,3.30
2022-12-07T18:13:38.356Z,3.30
2022-12-07T18:15:11.783Z,3.40
2022-12-07T18:16:45.601Z,3.30
2022-12-07T18:18:18.738Z,3.30
2022-12-07T18:19:53.136Z,3.40
2022-12-07T18:21:28.757Z,3.40
2022-12-07T18:23:01.810Z,3.40
2022-12-07T18:24:37.142Z,3.40
2022-12-07T18:26:10.488Z,3.50
2022-12-07T18:27:43.540Z,3.50
2022-12-07T18:29:17.833Z,3.60
2022-12-07T18:31:14.952Z,3.50
2022-12-07T18:32:45.023Z,3.50
2022-12-07T18:34:20.134Z,3.50
2022-12-07T18:35:54.547Z,3.50
2022-12-07T18:37:28.372Z,3.50
2022-12-07T18:39:01.436Z,3.50
2022-12-07T18:40:34.521Z,3.50
2022-12-07T18:42:08.338Z,3.40
2022-12-07T18:43:41.878Z,3.40
2022-12-07T18:45:15.240Z,3.40
2022-12-07T18:46:48.285Z,3.40
2022-12-07T18:48:22.670Z,3.30
2022-12-07T18:49:55.727Z,3.30
2022-12-07T18:51:32.630Z,3.30
2022-12-07T18:53:06.691Z,3.40
2022-12-07T18:54:42.449Z,3.30
2022-12-07T18:56:18.096Z,3.30
2022-12-07T18:57:51.141Z,3.30
2022-12-07T18:59:41.908Z,3.20
2022-12-07T19:01:15.060Z,3.10
2022-12-07T19:02:48.277Z,3.10
2022-12-07T19:04:21.987Z,3.00
2022-12-07T19:05:57.697Z,3.00
2022-12-07T19:07:32.101Z,2.90
2022-12-07T19:09:05.514Z,2.90
2022-12-07T19:10:38.972Z,2.90
2022-12-07T19:12:13.342Z,2.90
2022-12-07T19:13:46.651Z,2.90
2022-12-07T19:15:19.808Z,2.80
2022-12-07T19:16:55.022Z,2.80
2022-12-07T19:18:28.154Z,2.80
2022-12-07T19:20:01.284Z,2.80
2022-12-07T19:21:34.306Z,2.70
2022-12-07T19:23:08.746Z,2.70
2022-12-07T19:24:43.577Z,2.60
2022-12-07T19:26:16.824Z,2.60
2022-12-07T19:27:49.894Z,2.50
2022-12-07T19:29:23.323Z,2.50
2022-12-07T19:30:56.344Z,2.50
2022-12-07T19:32:30.186Z,2.50
2022-12-07T19:34:03.425Z,2.50
2022-12-07T19:35:36.449Z,2.50
2022-12-07T19:37:11.548Z,2.60
2022-12-07T19:38:45.962Z,2.60
2022-12-07T19:40:19.240Z,2.60
2022-12-07T19:41:52.325Z,2.70
2022-12-07T19:43:25.383Z,2.70
2022-12-07T19:44:58.436Z,2.80
2022-12-07T19:46:31.141Z,2.90
2022-12-07T19:48:04.218Z,2.90
2022-12-07T19:49:38.003Z,2.90
2022-12-07T19:51:11.216Z,3.00
2022-12-07T19:52:44.265Z,3.00
2022-12-07T19:54:20.269Z,3.10
2022-12-07T19:55:53.325Z,3.10
2022-12-07T19:57:26.477Z,3.10
2022-12-07T19:59:01.863Z,3.20
2022-12-07T20:00:34.942Z,3.20
2022-12-07T20:02:08.390Z,3.20
2022-12-07T20:03:41.635Z,3.30
2022-12-07T20:05:14.708Z,3.30
2022-12-07T20:06:48.447Z,3.30
2022-12-07T20:08:21.521Z,3.40
2022-12-07T20:09:55.948Z,3.30
2022-12-07T20:11:46.438Z,3.30
2022-12-07T20:13:32.233Z,3.40
2022-12-07T20:15:06.463Z,3.40
2022-12-07T20:16:40.362Z,3.40
2022-12-07T20:18:13.451Z,3.40
2022-12-07T20:19:46.479Z,3.50
2022-12-07T20:21:19.792Z,3.50
2022-12-07T20:22:52.854Z,3.50
2022-12-07T20:24:27.138Z,3.50
2022-12-07T20:26:05.748Z,3.50
2022-12-07T20:27:38.801Z,3.50
2022-12-07T20:29:17.890Z,3.50
2022-12-07T20:30:53.639Z,3.60
2022-12-07T20:32:26.732Z,3.60
2022-12-07T20:34:00.743Z,3.60
2022-12-07T20:35:33.776Z,3.60
2022-12-07T20:37:06.819Z,3.60
2022-12-07T20:38:40.339Z,3.50
2022-12-07T20:40:13.794Z,3.50
2022-12-07T20:42:05.814Z,3.50
2022-12-07T20:43:38.896Z,3.50
2022-12-07T20:45:12.339Z,3.50
2022-12-07T20:46:46.407Z,3.50
2022-12-07T20:48:19.516Z,3.50
2022-12-07T20:49:52.796Z,3.50
2022-12-07T20:51:25.897Z,3.50
2022-12-07T20:53:00.595Z,3.50
2022-12-07T20:54:33.834Z,3.50
2022-12-07T20:56:07.535Z,3.40
2022-12-07T20:57:41.984Z,3.40
2022-12-07T20:59:16.921Z,3.40
2022-12-07T21:00:49.964Z,3.40
2022-12-07T21:02:23.128Z,3.40
2022-12-07T21:03:56.699Z,3.30
2022-12-07T21:05:29.747Z,3.30
2022-12-07T21:07:02.867Z,3.30
2022-12-07T21:08:35.909Z,3.20
2022-12-07T21:10:10.165Z,3.20
2022-12-07T21:11:43.214Z,3.20
2022-12-07T21:13:17.688Z,3.20
2022-12-07T21:14:50.741Z,3.10
2022-12-07T21:16:25.649Z,3.20
2022-12-07T21:18:02.740Z,3.20
2022-12-07T21:19:39.459Z,3.10
2022-12-07T21:21:16.395Z,3.10
2022-12-07T21:22:49.445Z,3.10
2022-12-07T21:24:22.507Z,3.00
2022-12-07T21:25:55.694Z,3.10
2022-12-07T21:27:28.761Z,3.10
2022-12-07T21:29:04.823Z,3.10
2022-12-07T21:31:05.095Z,3.20
2022-12-07T21:32:33.219Z,3.10
2022-12-07T21:34:06.828Z,3.10
2022-12-07T21:35:40.127Z,3.10